Terminal Aerodrome Forecast
Issued by NWS

Home | Current Version | Previous Version | Text Only | Print | Product List | Glossary On
Versions: 1 2 3 4 5 6 7 8 9 10 11 12 13 14 15 16 17 18 19 20 21 22 23 24 25 26 27 28 29 30 31 32
343
FTUS41 KGYX 230831 AAA
TAFPSM
TAF AMD
KPSM 230831Z 2309/2406 04011G23KT P6SM -SHSN OVC015
     FM231400 06016G25KT P6SM OVC015 PROB30 2400/2404 2SM -SNPL
      OVC015
     FM240400 03019G27KT 1 1/2SM -SNPL BR OVC007=

USA.gov is the U.S. government's official web portal to all federal, state and local government web resources and services.